Time,TemperatureF,DewpointF,PressureIn,WindDirection,WindDirectionDegrees,WindSpeedMPH,WindSpeedGustMPH,Humidity,HourlyPrecipIn,Conditions,Clouds,dailyrainin,SoftwareType,DateUTC
2012-12-25 07:10:00,12.5,8.3,30.21,NE,45,2.0,6.0,83,0.00,,---,0.00,VWS V14.01,2012-12-25 14:10:00,
2012-12-25 07:24:00,12.2,8.0,30.24,NNE,33,2.0,2.0,83,0.00,,---,0.00,VWS V14.01,2012-12-25 14:24:00,
2012-12-25 07:25:00,12.2,8.0,30.24,NE,34,0.0,2.0,83,0.00,,---,0.00,VWS V14.01,2012-12-25 14:25:00,
2012-12-25 07:30:00,12.1,7.9,30.24,NNE,32,0.0,4.0,83,0.00,,---,0.00,VWS V14.01,2012-12-25 14:30:00,
2012-12-25 07:35:00,11.9,7.7,30.24,NNE,32,1.0,3.0,83,0.00,,---,0.00,VWS V14.01,2012-12-25 14:35:00,
2012-12-25 07:40:00,11.8,7.6,30.24,NNE,32,3.0,5.0,83,0.00,,---,0.00,VWS V14.01,2012-12-25 14:40:00,
2012-12-25 07:45:00,11.7,7.6,30.25,NNE,32,2.0,3.0,83,0.00,,---,0.00,VWS V14.01,2012-12-25 14:45:00,
2012-12-25 07:50:00,11.7,7.6,30.25,NNE,32,0.0,4.0,83,0.00,,---,0.00,VWS V14.01,2012-12-25 14:50:00,
2012-12-25 07:55:00,11.6,7.4,30.25,NNE,32,0.0,2.0,83,0.00,,---,0.00,VWS V14.01,2012-12-25 14:55:00,
2012-12-25 08:00:00,11.6,7.4,30.26,NNE,32,2.0,4.0,83,0.00,,---,0.00,VWS V14.01,2012-12-25 15:00:00,
2012-12-25 08:05:00,11.5,7.3,30.26,NNE,32,2.0,2.0,83,0.00,,---,0.00,VWS V14.01,2012-12-25 15:05:00,
2012-12-25 08:10:00,11.4,7.0,30.30,NNE,32,0.0,3.0,82,0.00,,---,0.00,VWS V14.01,2012-12-25 15:10:00,
2012-12-25 08:15:00,11.3,6.9,30.30,NNE,32,0.0,0.0,82,0.00,,---,0.00,VWS V14.01,2012-12-25 15:15:00,
2012-12-25 08:20:00,11.4,7.0,30.30,NNE,32,0.0,0.0,82,0.00,,---,0.00,VWS V14.01,2012-12-25 15:20:00,
2012-12-25 08:25:00,11.4,7.0,30.31,NNE,32,0.0,0.0,82,0.00,,---,0.00,VWS V14.01,2012-12-25 15:25:00,
2012-12-25 08:30:00,11.6,7.2,30.31,NNE,32,1.0,2.0,82,0.00,,---,0.00,VWS V14.01,2012-12-25 15:30:00,
2012-12-25 08:35:00,11.4,7.0,30.31,NNE,32,0.0,0.0,82,0.00,,---,0.00,VWS V14.01,2012-12-25 15:35:00,
2012-12-25 08:40:00,11.3,6.9,30.31,NNE,32,0.0,0.0,82,0.00,,---,0.00,VWS V14.01,2012-12-25 15:40:00,
2012-12-25 08:45:00,11.3,6.9,30.31,NNE,32,0.0,0.0,82,0.00,,---,0.00,VWS V14.01,2012-12-25 15:45:00,
2012-12-25 08:50:00,11.4,7.0,30.32,NNE,32,0.0,0.0,82,0.00,,---,0.00,VWS V14.01,2012-12-25 15:50:00,
2012-12-25 08:55:00,11.5,7.1,30.32,NNE,32,0.0,1.0,82,0.00,,---,0.00,VWS V14.01,2012-12-25 15:55:00,
2012-12-25 09:00:00,11.6,7.2,30.32,NNE,32,0.0,0.0,82,0.00,,---,0.00,VWS V14.01,2012-12-25 16:00:00,
2012-12-25 09:05:00,11.6,7.2,30.34,NNE,32,1.0,1.0,82,0.00,,---,0.00,VWS V14.01,2012-12-25 16:05:00,
2012-12-25 09:10:00,11.8,7.4,30.35,NNE,32,0.0,0.0,82,0.00,,---,0.00,VWS V14.01,2012-12-25 16:10:00,
2012-12-25 09:15:00,12.2,7.8,30.34,NNE,32,0.0,1.0,82,0.00,,---,0.00,VWS V14.01,2012-12-25 16:15:00,
2012-12-25 09:20:00,12.5,8.1,30.33,NNE,32,0.0,1.0,82,0.00,,---,0.00,VWS V14.01,2012-12-25 16:20:00,
2012-12-25 09:25:00,12.5,7.8,30.33,NNE,32,0.0,0.0,81,0.00,,---,0.00,VWS V14.01,2012-12-25 16:25:00,
2012-12-25 09:30:00,12.5,7.8,30.33,NNE,32,0.0,0.0,81,0.00,,---,0.00,VWS V14.01,2012-12-25 16:30:00,
2012-12-25 09:36:00,12.5,7.8,30.33,NNE,32,0.0,1.0,81,0.00,,---,0.00,VWS V14.01,2012-12-25 16:36:00,
2012-12-25 09:41:00,12.8,8.1,30.34,NNE,32,0.0,0.0,81,0.00,,---,0.00,VWS V14.01,2012-12-25 16:41:00,
2012-12-25 09:46:00,13.1,8.4,30.33,NNE,32,0.0,0.0,81,0.00,,---,0.00,VWS V14.01,2012-12-25 16:46:00,
2012-12-25 09:51:00,13.5,9.0,30.34,NNE,32,0.0,0.0,82,0.00,,---,0.00,VWS V14.01,2012-12-25 16:51:00,
2012-12-25 09:56:00,13.6,8.9,30.34,NNE,32,0.0,0.0,81,0.00,,---,0.00,VWS V14.01,2012-12-25 16:56:00,
2012-12-25 10:01:00,13.3,8.3,30.35,NNE,32,1.0,2.0,80,0.00,,---,0.00,VWS V14.01,2012-12-25 17:01:00,
2012-12-25 10:06:00,12.6,7.3,30.35,NNE,32,2.0,2.0,79,0.00,,---,0.00,VWS V14.01,2012-12-25 17:06:00,
2012-12-25 10:11:00,12.3,7.3,30.37,NNE,32,0.0,0.0,80,0.00,,---,0.00,VWS V14.01,2012-12-25 17:11:00,
2012-12-25 10:16:00,12.5,7.5,30.37,NNE,32,0.0,0.0,80,0.00,,---,0.00,VWS V14.01,2012-12-25 17:16:00,
2012-12-25 10:21:00,13.0,8.3,30.35,NNE,32,0.0,0.0,81,0.00,,---,0.00,VWS V14.01,2012-12-25 17:21:00,
2012-12-25 10:26:00,13.7,9.0,30.35,NNE,32,0.0,1.0,81,0.00,,---,0.00,VWS V14.01,2012-12-25 17:26:00,
2012-12-25 10:31:00,14.2,9.4,30.35,NNE,32,0.0,0.0,81,0.00,,---,0.00,VWS V14.01,2012-12-25 17:31:00,
2012-12-25 10:36:00,14.3,9.3,30.35,NNE,32,0.0,2.0,80,0.00,,---,0.00,VWS V14.01,2012-12-25 17:36:00,
2012-12-25 10:41:00,14.4,9.4,30.34,NNE,32,0.0,0.0,80,0.00,,---,0.00,VWS V14.01,2012-12-25 17:41:00,
2012-12-25 10:46:00,14.6,9.6,30.33,NNE,32,0.0,2.0,80,0.00,,---,0.00,VWS V14.01,2012-12-25 17:46:00,
2012-12-25 10:51:00,14.6,9.6,30.33,NNE,32,1.0,2.0,80,0.00,,---,0.00,VWS V14.01,2012-12-25 17:51:00,
2012-12-25 10:56:00,14.6,9.6,30.32,NNE,32,1.0,3.0,80,0.00,,---,0.00,VWS V14.01,2012-12-25 17:56:00,
2012-12-25 11:01:00,14.7,9.7,30.33,NNE,32,2.0,4.0,80,0.00,,---,0.00,VWS V14.01,2012-12-25 18:01:00,
2012-12-25 11:06:00,15.1,10.1,30.32,NNE,32,0.0,0.0,80,0.00,,---,0.00,VWS V14.01,2012-12-25 18:06:00,
2012-12-25 11:11:00,15.9,10.8,30.31,NNE,32,0.0,0.0,80,0.00,,---,0.00,VWS V14.01,2012-12-25 18:11:00,
2012-12-25 11:16:00,16.7,11.1,30.30,NNE,32,0.0,1.0,78,0.00,,---,0.00,VWS V14.01,2012-12-25 18:16:00,
2012-12-25 11:21:00,17.9,12.2,30.28,NNE,32,0.0,1.0,78,0.00,,---,0.00,VWS V14.01,2012-12-25 18:21:00,
2012-12-25 11:26:00,18.8,12.5,30.28,NNE,32,0.0,2.0,76,0.00,,---,0.00,VWS V14.01,2012-12-25 18:26:00,
2012-12-25 11:31:00,19.1,12.2,30.27,NNE,15,1.0,1.0,74,0.00,,---,0.00,VWS V14.01,2012-12-25 18:31:00,
2012-12-25 11:36:00,19.1,11.9,30.27,NNE,15,1.0,4.0,73,0.00,,---,0.00,VWS V14.01,2012-12-25 18:36:00,
2012-12-25 11:41:00,19.1,11.6,30.27,NNE,14,0.0,3.0,72,0.00,,---,0.00,VWS V14.01,2012-12-25 18:41:00,
2012-12-25 11:46:00,19.2,11.7,30.26,NNE,14,1.0,1.0,72,0.00,,---,0.00,VWS V14.01,2012-12-25 18:46:00,
2012-12-25 11:51:00,19.5,12.0,30.26,NNE,14,0.0,1.0,72,0.00,,---,0.00,VWS V14.01,2012-12-25 18:51:00,
2012-12-25 11:56:00,19.7,11.5,30.24,North,9,3.0,6.0,70,0.00,,---,0.00,VWS V14.01,2012-12-25 18:56:00,
2012-12-25 12:01:00,19.0,10.8,30.25,North,360,0.0,4.0,70,0.00,,---,0.00,VWS V14.01,2012-12-25 19:01:00,
2012-12-25 12:06:00,19.1,10.6,30.23,West,280,4.0,8.0,69,0.00,,---,0.00,VWS V14.01,2012-12-25 19:06:00,
2012-12-25 12:11:00,18.5,10.7,30.23,WSW,250,5.0,6.0,71,0.00,,---,0.00,VWS V14.01,2012-12-25 19:11:00,
2012-12-25 12:16:00,18.1,10.3,30.25,WSW,249,1.0,5.0,71,0.00,,---,0.00,VWS V14.01,2012-12-25 19:16:00,
2012-12-25 12:21:00,18.7,11.2,30.23,WSW,249,0.0,2.0,72,0.00,,---,0.00,VWS V14.01,2012-12-25 19:21:00,
2012-12-25 12:26:00,19.7,11.5,30.22,WSW,249,0.0,1.0,70,0.00,,---,0.00,VWS V14.01,2012-12-25 19:26:00,
2012-12-25 12:31:00,20.1,11.6,30.23,WSW,249,0.0,5.0,69,0.00,,---,0.00,VWS V14.01,2012-12-25 19:31:00,
2012-12-25 12:36:00,20.4,11.2,30.22,WSW,249,1.0,1.0,67,0.00,,---,0.00,VWS V14.01,2012-12-25 19:36:00,
2012-12-25 12:41:00,20.8,11.9,30.20,WSW,249,2.0,6.0,68,0.00,,---,0.00,VWS V14.01,2012-12-25 19:41:00,
2012-12-25 12:47:00,21.2,12.0,30.20,WSW,249,0.0,2.0,67,0.01,,---,0.01,VWS V14.01,2012-12-25 19:47:00,
2012-12-25 12:52:00,21.5,11.9,30.20,WSW,249,3.0,5.0,66,0.01,,---,0.01,VWS V14.01,2012-12-25 19:52:00,
2012-12-25 12:57:00,21.5,11.6,30.20,WSW,249,5.0,5.0,65,0.01,,---,0.01,VWS V14.01,2012-12-25 19:57:00,
2012-12-25 13:02:00,21.0,11.1,30.20,WSW,249,1.0,2.0,65,0.01,,---,0.01,VWS V14.01,2012-12-25 20:02:00,
2012-12-25 13:07:00,21.2,12.0,30.19,WSW,249,0.0,3.0,67,0.01,,---,0.01,VWS V14.01,2012-12-25 20:07:00,
2012-12-25 13:12:00,21.5,11.9,30.19,WSW,249,0.0,2.0,66,0.01,,---,0.01,VWS V14.01,2012-12-25 20:12:00,
2012-12-25 13:17:00,21.8,11.9,30.19,WSW,249,5.0,7.0,65,0.01,,---,0.01,VWS V14.01,2012-12-25 20:17:00,
2012-12-25 13:22:00,21.3,11.0,30.20,WSW,249,2.0,7.0,64,0.01,,---,0.01,VWS V14.01,2012-12-25 20:22:00,
2012-12-25 13:27:00,21.2,11.3,30.20,WSW,249,0.0,5.0,65,0.01,,---,0.01,VWS V14.01,2012-12-25 20:27:00,
2012-12-25 13:32:00,21.7,11.8,30.20,WSW,249,5.0,6.0,65,0.01,,---,0.01,VWS V14.01,2012-12-25 20:32:00,
2012-12-25 13:37:00,21.6,11.3,30.20,WSW,249,5.0,5.0,64,0.01,,---,0.01,VWS V14.01,2012-12-25 20:37:00,
2012-12-25 13:42:00,21.4,11.1,30.20,WSW,249,0.0,3.0,64,0.01,,---,0.01,VWS V14.01,2012-12-25 20:42:00,
2012-12-25 13:47:00,21.6,11.7,30.20,WSW,249,0.0,2.0,65,0.00,,---,0.01,VWS V14.01,2012-12-25 20:47:00,
2012-12-25 13:52:00,22.1,11.8,30.19,WSW,249,0.0,2.0,64,0.00,,---,0.01,VWS V14.01,2012-12-25 20:52:00,
2012-12-25 13:57:00,22.6,11.6,30.18,WSW,249,4.0,5.0,62,0.00,,---,0.01,VWS V14.01,2012-12-25 20:57:00,
2012-12-25 14:02:00,22.5,11.5,30.17,WSW,249,0.0,1.0,62,0.00,,---,0.01,VWS V14.01,2012-12-25 21:02:00,
2012-12-25 14:07:00,22.9,11.8,30.19,WSW,249,0.0,1.0,62,0.00,,---,0.01,VWS V14.01,2012-12-25 21:07:00,
2012-12-25 14:12:00,23.5,12.0,30.19,WSW,249,2.0,5.0,61,0.00,,---,0.01,VWS V14.01,2012-12-25 21:12:00,
2012-12-25 14:17:00,23.8,11.6,30.19,WSW,249,0.0,2.0,59,0.00,,---,0.01,VWS V14.01,2012-12-25 21:17:00,
2012-12-25 14:22:00,23.4,11.2,30.20,WSW,249,2.0,5.0,59,0.00,,---,0.01,VWS V14.01,2012-12-25 21:22:00,
2012-12-25 14:27:00,23.0,11.2,30.19,WSW,249,1.0,4.0,60,0.00,,---,0.01,VWS V14.01,2012-12-25 21:27:00,
2012-12-25 14:32:00,23.1,13.4,30.19,WSW,249,1.0,2.0,66,0.00,,---,0.01,VWS V14.01,2012-12-25 21:32:00,
2012-12-25 14:37:00,23.3,11.5,30.19,WSW,249,0.0,2.0,60,0.00,,---,0.01,VWS V14.01,2012-12-25 21:37:00,
2012-12-25 14:42:00,23.3,10.7,30.19,WSW,249,0.0,4.0,58,0.00,,---,0.01,VWS V14.01,2012-12-25 21:42:00,
2012-12-25 14:47:00,23.3,11.1,30.19,WSW,249,3.0,5.0,59,0.00,,---,0.01,VWS V14.01,2012-12-25 21:47:00,
2012-12-25 14:52:00,23.2,11.0,30.19,WSW,249,3.0,4.0,59,0.00,,---,0.01,VWS V14.01,2012-12-25 21:52:00,
2012-12-25 14:57:00,22.7,10.5,30.19,WSW,249,2.0,4.0,59,0.00,,---,0.01,VWS V14.01,2012-12-25 21:57:00,
2012-12-25 15:03:00,21.9,10.2,30.21,WSW,249,1.0,2.0,60,0.00,,---,0.01,VWS V14.01,2012-12-25 22:03:00,
2012-12-25 15:08:00,21.5,9.8,30.21,WSW,249,0.0,3.0,60,0.00,,---,0.01,VWS V14.01,2012-12-25 22:08:00,
2012-12-25 15:13:00,21.1,9.8,30.21,WSW,249,0.0,2.0,61,0.00,,---,0.01,VWS V14.01,2012-12-25 22:13:00,
2012-12-25 15:18:00,21.3,10.0,30.21,WSW,249,2.0,3.0,61,0.00,,---,0.01,VWS V14.01,2012-12-25 22:18:00,
2012-12-25 15:23:00,21.3,10.3,30.21,WSW,249,0.0,2.0,62,0.00,,---,0.01,VWS V14.01,2012-12-25 22:23:00,
2012-12-25 15:28:00,21.8,10.4,30.21,WSW,249,0.0,2.0,61,0.00,,---,0.01,VWS V14.01,2012-12-25 22:28:00,
2012-12-25 15:33:00,22.3,10.5,30.21,WSW,249,0.0,1.0,60,0.00,,---,0.01,VWS V14.01,2012-12-25 22:33:00,
2012-12-25 15:38:00,22.5,10.7,30.19,WSW,249,0.0,0.0,60,0.00,,---,0.01,VWS V14.01,2012-12-25 22:38:00,
2012-12-25 15:43:00,21.6,9.5,30.21,WSW,249,1.0,2.0,59,0.01,,---,0.02,VWS V14.01,2012-12-25 22:43:00,
2012-12-25 15:48:00,20.8,9.5,30.21,WSW,249,0.0,1.0,61,0.01,,---,0.02,VWS V14.01,2012-12-25 22:48:00,
2012-12-25 15:53:00,20.6,9.7,30.21,WSW,249,0.0,0.0,62,0.01,,---,0.02,VWS V14.01,2012-12-25 22:53:00,
2012-12-25 15:58:00,20.4,9.8,30.21,WSW,249,0.0,1.0,63,0.01,,---,0.02,VWS V14.01,2012-12-25 22:58:00,
2012-12-25 16:03:00,20.3,9.7,30.23,WSW,249,0.0,0.0,63,0.01,,---,0.02,VWS V14.01,2012-12-25 23:03:00,
2012-12-25 16:08:00,20.0,9.4,30.23,WSW,249,0.0,1.0,63,0.01,,---,0.02,VWS V14.01,2012-12-25 23:08:00,
2012-12-25 16:13:00,19.7,9.5,30.23,WSW,249,0.0,1.0,64,0.01,,---,0.02,VWS V14.01,2012-12-25 23:13:00,
2012-12-25 16:18:00,19.5,9.3,30.23,WSW,249,0.0,0.0,64,0.01,,---,0.02,VWS V14.01,2012-12-25 23:18:00,
2012-12-25 16:23:00,19.1,9.3,30.25,WSW,249,0.0,0.0,65,0.01,,---,0.02,VWS V14.01,2012-12-25 23:23:00,
2012-12-25 16:28:00,18.7,8.9,30.25,WSW,249,0.0,0.0,65,0.01,,---,0.02,VWS V14.01,2012-12-25 23:28:00,
2012-12-25 16:33:00,18.3,8.9,30.25,WSW,249,0.0,0.0,66,0.01,,---,0.02,VWS V14.01,2012-12-25 23:33:00,
2012-12-25 16:38:00,17.9,8.5,30.25,WSW,249,0.0,2.0,66,0.01,,---,0.02,VWS V14.01,2012-12-25 23:38:00,
2012-12-25 16:43:00,17.2,8.1,30.28,WSW,249,2.0,2.0,67,0.01,,---,0.02,VWS V14.01,2012-12-25 23:43:00,
2012-12-25 16:48:00,16.4,7.7,30.28,WSW,249,1.0,2.0,68,0.00,,---,0.02,VWS V14.01,2012-12-25 23:48:00,
2012-12-25 16:53:00,15.6,7.3,30.28,WSW,249,1.0,2.0,69,0.00,,---,0.02,VWS V14.01,2012-12-25 23:53:00,
2012-12-25 16:58:00,14.6,6.6,30.30,WSW,249,0.0,2.0,70,0.00,,---,0.02,VWS V14.01,2012-12-25 23:58:00,
2012-12-25 17:03:00,14.0,6.3,30.30,WSW,249,0.0,1.0,71,0.00,,---,0.02,VWS V14.01,2012-12-26 00:03:00,
2012-12-25 17:08:00,13.6,6.3,30.31,WSW,249,0.0,3.0,72,0.00,,---,0.02,VWS V14.01,2012-12-26 00:08:00,
2012-12-25 17:13:00,13.4,6.7,30.33,WSW,249,0.0,1.0,74,0.00,,---,0.02,VWS V14.01,2012-12-26 00:13:00,
2012-12-25 17:18:00,12.8,5.8,30.33,WSW,249,1.0,4.0,73,0.00,,---,0.02,VWS V14.01,2012-12-26 00:18:00,
2012-12-25 17:23:00,11.5,4.2,30.33,WSW,249,0.0,2.0,72,0.00,,---,0.02,VWS V14.01,2012-12-26 00:23:00,
2012-12-25 17:29:00,11.1,4.4,30.35,WSW,249,0.0,1.0,74,0.00,,---,0.02,VWS V14.01,2012-12-26 00:29:00,
2012-12-25 17:34:00,11.4,5.3,30.35,WSW,249,0.0,4.0,76,0.00,,---,0.02,VWS V14.01,2012-12-26 00:34:00,
2012-12-25 17:39:00,11.7,5.9,30.34,WSW,249,0.0,0.0,77,0.00,,---,0.02,VWS V14.01,2012-12-26 00:39:00,
2012-12-25 17:44:00,11.8,6.0,30.34,WSW,249,1.0,8.0,77,0.00,,---,0.02,VWS V14.01,2012-12-26 00:44:00,
2012-12-25 17:49:00,12.2,6.7,30.34,WSW,248,0.0,4.0,78,0.00,,---,0.02,VWS V14.01,2012-12-26 00:49:00,
2012-12-25 17:54:00,11.8,6.0,30.34,WSW,249,1.0,5.0,77,0.00,,---,0.02,VWS V14.01,2012-12-26 00:54:00,
2012-12-25 17:59:00,10.5,4.4,30.36,WSW,249,0.0,3.0,76,0.00,,---,0.02,VWS V14.01,2012-12-26 00:59:00,
2012-12-25 18:04:00,9.1,2.8,30.39,WSW,249,0.0,1.0,75,0.00,,---,0.02,VWS V14.01,2012-12-26 01:04:00,
2012-12-25 18:09:00,8.1,2.1,30.42,WSW,249,0.0,0.0,76,0.00,,---,0.02,VWS V14.01,2012-12-26 01:09:00,
2012-12-25 18:14:00,7.5,1.8,30.42,WSW,248,1.0,2.0,77,0.00,,---,0.02,VWS V14.01,2012-12-26 01:14:00,
2012-12-25 18:19:00,6.5,0.8,30.42,WSW,249,0.0,6.0,77,0.00,,---,0.02,VWS V14.01,2012-12-26 01:19:00,
2012-12-25 18:24:00,6.4,1.3,30.44,WSW,249,0.0,1.0,79,0.00,,---,0.02,VWS V14.01,2012-12-26 01:24:00,
2012-12-25 18:29:00,6.9,2.0,30.42,WSW,249,1.0,2.0,80,0.00,,---,0.02,VWS V14.01,2012-12-26 01:29:00,
2012-12-25 18:34:00,8.1,3.5,30.42,WSW,249,1.0,5.0,81,0.00,,---,0.02,VWS V14.01,2012-12-26 01:34:00,
2012-12-25 18:39:00,9.1,4.7,30.40,WSW,249,0.0,2.0,82,0.00,,---,0.02,VWS V14.01,2012-12-26 01:39:00,
2012-12-25 18:44:00,9.9,5.5,30.39,WSW,249,0.0,2.0,82,0.00,,---,0.02,VWS V14.01,2012-12-26 01:44:00,
2012-12-25 18:49:00,10.4,6.0,30.39,WSW,249,3.0,4.0,82,0.00,,---,0.02,VWS V14.01,2012-12-26 01:49:00,
2012-12-25 18:54:00,10.7,6.3,30.37,WSW,249,2.0,5.0,82,0.00,,---,0.02,VWS V14.01,2012-12-26 01:54:00,
2012-12-25 18:59:00,10.7,6.3,30.37,WSW,249,0.0,4.0,82,0.00,,---,0.02,VWS V14.01,2012-12-26 01:59:00,
2012-12-25 19:04:00,10.5,6.1,30.37,WSW,249,1.0,2.0,82,0.00,,---,0.02,VWS V14.01,2012-12-26 02:04:00,
2012-12-25 19:09:00,9.9,5.2,30.39,WSW,249,1.0,4.0,81,0.00,,---,0.02,VWS V14.01,2012-12-26 02:09:00,
2012-12-25 19:14:00,9.6,4.9,30.39,WSW,249,1.0,1.0,81,0.00,,---,0.02,VWS V14.01,2012-12-26 02:14:00,
2012-12-25 19:19:00,9.5,4.9,30.41,WSW,249,0.0,2.0,81,0.00,,---,0.02,VWS V14.01,2012-12-26 02:19:00,
2012-12-25 19:24:00,9.2,4.6,30.41,WSW,249,0.0,2.0,81,0.00,,---,0.02,VWS V14.01,2012-12-26 02:24:00,
2012-12-25 19:29:00,9.0,4.4,30.41,WSW,249,0.0,0.0,81,0.00,,---,0.02,VWS V14.01,2012-12-26 02:29:00,
2012-12-25 19:34:00,8.7,4.1,30.40,WSW,249,0.0,0.0,81,0.00,,---,0.02,VWS V14.01,2012-12-26 02:34:00,
2012-12-25 19:39:00,8.6,4.0,30.40,WSW,248,0.0,0.0,81,0.00,,---,0.02,VWS V14.01,2012-12-26 02:39:00,
2012-12-25 19:44:00,8.7,4.1,30.40,WSW,249,0.0,0.0,81,0.00,,---,0.02,VWS V14.01,2012-12-26 02:44:00,
2012-12-25 19:49:00,8.9,4.5,30.40,WSW,249,0.0,0.0,82,0.00,,---,0.02,VWS V14.01,2012-12-26 02:49:00,
2012-12-25 19:54:00,9.3,4.9,30.40,WSW,249,0.0,0.0,82,0.00,,---,0.02,VWS V14.01,2012-12-26 02:54:00,
2012-12-25 19:59:00,9.6,5.2,30.37,WSW,249,0.0,1.0,82,0.00,,---,0.02,VWS V14.01,2012-12-26 02:59:00,
2012-12-25 20:04:00,9.8,5.4,30.38,WSW,249,0.0,1.0,82,0.00,,---,0.02,VWS V14.01,2012-12-26 03:04:00,
2012-12-25 20:09:00,9.9,5.5,30.38,WSW,249,0.0,2.0,82,0.00,,---,0.02,VWS V14.01,2012-12-26 03:09:00,
2012-12-25 20:14:00,10.1,5.7,30.37,WSW,249,2.0,2.0,82,0.00,,---,0.02,VWS V14.01,2012-12-26 03:14:00,
2012-12-25 20:19:00,10.2,5.8,30.37,WSW,249,0.0,2.0,82,0.00,,---,0.02,VWS V14.01,2012-12-26 03:19:00,
2012-12-25 20:25:00,10.2,6.1,30.37,WSW,249,0.0,2.0,83,0.00,,---,0.02,VWS V14.01,2012-12-26 03:25:00,
2012-12-25 20:30:00,10.1,5.7,30.37,WSW,249,0.0,1.0,82,0.00,,---,0.02,VWS V14.01,2012-12-26 03:30:00,
2012-12-25 20:35:00,10.2,5.8,30.37,WSW,249,0.0,0.0,82,0.00,,---,0.02,VWS V14.01,2012-12-26 03:35:00,
2012-12-25 20:40:00,10.0,5.6,30.37,WSW,249,0.0,1.0,82,0.00,,---,0.02,VWS V14.01,2012-12-26 03:40:00,
2012-12-25 20:45:00,9.9,5.5,30.37,WSW,249,0.0,0.0,82,0.00,,---,0.02,VWS V14.01,2012-12-26 03:45:00,
2012-12-25 20:50:00,9.9,5.5,30.36,WSW,248,0.0,2.0,82,0.00,,---,0.02,VWS V14.01,2012-12-26 03:50:00,